Time;durP1;ratioP1;P1;durP2;ratioP2;P2;SDS_P1;SDS_P2;PMS_P1;PMS_P2;Temp;Humidity;BMP_temperature;BMP_pressure;BME280_temperature;BME280_humidity;BME280_pressure;Samples;Min_cycle;Max_cycle;Signal;HPM_P1;HPM_P2
2022/01/20 00:03:43;;;;;;;;;34.00;27.25;;;;;9.61;68.65;102355.66;4939982;28;45114;-77
2022/01/20 00:09:29;;;;;;;;;33.00;24.25;;;;;9.72;68.64;102369.63;4945461;28;45131;-75
2022/01/20 00:28:11;;;;;;;;;33.50;25.75;;;;;9.36;67.73;102327.59;4946845;28;45143;-76
2022/01/20 00:30:48;;;;;;;;;27.25;23.75;;;;;9.73;67.84;102379.44;4945806;28;46279;-75
2022/01/20 00:33:19;;;;;;;;;19.25;18.25;;;;;8.96;67.38;102228.41;4951286;28;45159;-76
2022/01/20 00:38:20;;;;;;;;;26.50;22.75;;;;;9.64;66.66;102349.59;4942641;28;45377;-74
2022/01/20 00:40:46;;;;;;;;;24.00;20.50;;;;;9.78;67.66;102375.28;4942683;28;47232;-75
2022/01/20 00:43:11;;;;;;;;;18.75;18.00;;;;;9.26;67.56;102274.59;4940347;28;45214;-74
2022/01/20 00:45:36;;;;;;;;;27.25;22.00;;;;;9.74;67.21;102359.94;4948249;28;45101;-75
2022/01/20 00:48:02;;;;;;;;;21.50;20.00;;;;;9.72;67.22;102370.53;4934683;28;45466;-75
2022/01/20 00:50:27;;;;;;;;;26.75;21.50;;;;;9.58;67.51;102345.72;4916505;28;46905;-76
2022/01/20 00:52:53;;;;;;;;;25.75;18.00;;;;;9.16;67.38;102267.81;4942342;28;45317;-74
2022/01/20 00:55:19;;;;;;;;;24.50;21.50;;;;;9.28;66.52;102306.66;4945398;28;45042;-75
2022/01/20 00:57:44;;;;;;;;;20.50;16.75;;;;;9.65;67.04;102376.38;4947536;28;45057;-77
2022/01/20 01:00:12;;;;;;;;;19.50;17.50;;;;;9.66;66.26;102377.28;4936877;28;45346;-77
2022/01/20 01:02:38;;;;;;;;;19.75;16.00;;;;;9.44;66.74;102329.78;4937369;28;45182;-76
2022/01/20 01:05:04;;;;;;;;;19.00;16.00;;;;;9.35;65.81;102311.50;4936568;28;45182;-76
2022/01/20 01:09:59;;;;;;;;;20.50;16.50;;;;;9.44;66.42;102357.41;4947187;28;45200;-76
2022/01/20 01:12:39;;;;;;;;;20.00;18.50;;;;;9.60;66.55;102385.84;4948573;28;45020;-75
2022/01/20 01:15:12;;;;;;;;;13.50;12.50;;;;;9.29;65.65;102346.78;4944037;28;45326;-74
2022/01/20 01:20:22;;;;;;;;;15.25;12.75;;;;;9.57;65.55;102396.38;4944092;28;45300;-75
2022/01/20 01:22:48;;;;;;;;;18.00;14.00;;;;;9.18;65.86;102348.81;4943986;28;45355;-76
2022/01/20 01:25:15;;;;;;;;;17.25;15.00;;;;;9.37;65.74;102371.19;4944324;28;45264;-75
2022/01/20 01:27:42;;;;;;;;;15.50;12.50;;;;;9.31;65.31;102393.09;4935462;28;45600;-75
2022/01/20 01:32:56;;;;;;;;;16.75;12.00;;;;;9.45;64.93;102400.97;4941653;28;45103;-73
2022/01/20 01:35:26;;;;;;;;;13.50;13.25;;;;;9.42;64.69;102412.41;4934677;28;45109;-73
2022/01/20 01:40:21;;;;;;;;;18.00;14.50;;;;;9.44;65.62;102425.81;4947257;28;45660;-74
2022/01/20 01:42:50;;;;;;;;;13.50;13.00;;;;;8.77;65.61;102311.75;4942066;28;45928;-76
2022/01/20 01:45:16;;;;;;;;;19.25;15.75;;;;;9.26;65.49;102399.94;4948341;28;45304;-73
2022/01/20 01:47:44;;;;;;;;;15.75;14.25;;;;;9.00;65.95;102361.97;4936271;28;45105;-76
2022/01/20 01:50:10;;;;;;;;;21.75;16.50;;;;;9.28;64.76;102408.94;4944536;28;45679;-76
2022/01/20 01:52:36;;;;;;;;;19.75;19.25;;;;;9.20;65.15;102413.81;4943798;28;45068;-77
2022/01/20 01:55:03;;;;;;;;;16.75;13.00;;;;;9.27;65.42;102432.84;4933282;28;44960;-76
2022/01/20 01:57:28;;;;;;;;;21.00;14.25;;;;;9.41;65.56;102461.25;4938642;28;45308;-75
2022/01/20 01:59:55;;;;;;;;;19.25;12.00;;;;;9.23;65.98;102438.00;4943337;28;45373;-76
2022/01/20 02:02:21;;;;;;;;;17.75;16.00;;;;;9.16;65.52;102435.81;4944212;28;45046;-77
2022/01/20 02:04:48;;;;;;;;;12.50;10.00;;;;;9.28;65.37;102461.38;4928749;28;45297;-75
2022/01/20 02:20:43;;;;;;;;;18.00;16.50;;;;;9.02;64.74;102451.00;4932810;28;45307;-74
2022/01/20 02:23:08;;;;;;;;;26.25;15.75;;;;;9.15;64.77;102473.94;4934709;28;45247;-74
2022/01/20 02:25:36;;;;;;;;;16.25;12.00;;;;;9.21;65.72;102470.75;4938889;28;45230;-74
2022/01/20 02:28:04;;;;;;;;;17.75;16.50;;;;;9.20;65.24;102480.47;4945016;28;45158;-75
2022/01/20 02:30:30;;;;;;;;;13.00;12.50;;;;;9.01;65.36;102458.88;4938005;28;46825;-74
2022/01/20 02:32:59;;;;;;;;;16.50;14.50;;;;;9.14;65.17;102492.53;4934965;28;45252;-74
2022/01/20 02:35:27;;;;;;;;;18.75;13.75;;;;;8.87;64.80;102455.38;4945515;28;45203;-74
2022/01/20 02:38:01;;;;;;;;;11.50;11.00;;;;;9.07;64.38;102487.66;4948385;28;45104;-76
2022/01/20 02:45:41;;;;;;;;;16.00;16.00;;;;;8.78;64.63;102447.75;4940932;28;44977;-74
2022/01/20 02:48:06;;;;;;;;;15.00;10.50;;;;;8.99;63.98;102482.78;4934816;28;45072;-75
2022/01/20 02:50:31;;;;;;;;;10.00;6.00;;;;;8.64;63.59;102422.91;4937185;28;45167;-74
2022/01/20 02:52:57;;;;;;;;;10.00;8.25;;;;;8.79;63.84;102451.31;4939581;28;45211;-75
2022/01/20 02:55:23;;;;;;;;;10.00;10.00;;;;;8.89;63.57;102459.03;4943456;28;45027;-74
2022/01/20 02:57:48;;;;;;;;;12.50;9.00;;;;;8.63;63.80;102409.53;4937959;28;45942;-74
2022/01/20 03:00:14;;;;;;;;;17.25;11.75;;;;;8.98;64.02;102464.94;4937290;28;45422;-75
2022/01/20 03:02:41;;;;;;;;;10.75;9.25;;;;;8.83;63.01;102440.03;4952325;28;45110;-76
2022/01/20 03:05:07;;;;;;;;;15.25;11.00;;;;;8.47;63.34;102381.91;4947813;28;45142;-73
2022/01/20 03:07:32;;;;;;;;;13.25;10.50;;;;;8.90;62.95;102463.56;4943416;28;44976;-76
2022/01/20 03:09:58;;;;;;;;;14.50;10.75;;;;;8.96;63.19;102476.31;4937239;28;45167;-75
2022/01/20 03:12:23;;;;;;;;;11.75;9.50;;;;;8.94;63.15;102476.25;4951251;28;44854;-75
2022/01/20 03:14:48;;;;;;;;;12.50;10.50;;;;;8.93;63.54;102477.06;4954298;28;45027;-75
2022/01/20 03:17:15;;;;;;;;;6.50;6.50;;;;;8.89;63.40;102487.47;4945412;28;45115;-75
2022/01/20 03:19:41;;;;;;;;;14.50;9.00;;;;;8.55;62.90;102448.09;4940499;28;45603;-74
2022/01/20 03:22:06;;;;;;;;;10.75;8.50;;;;;8.62;62.39;102451.19;4942544;28;45084;-74
2022/01/20 03:24:31;;;;;;;;;17.50;10.75;;;;;8.82;63.06;102491.50;4943005;28;45138;-76
2022/01/20 03:26:57;;;;;;;;;10.00;7.00;;;;;8.82;62.40;102497.72;4943583;28;45005;-74
2022/01/20 03:29:22;;;;;;;;;11.00;8.25;;;;;8.84;63.62;102500.50;4917695;28;46595;-76
2022/01/20 03:31:48;;;;;;;;;8.25;6.25;;;;;8.54;63.00;102439.16;4942391;28;45282;-75
2022/01/20 03:34:13;;;;;;;;;12.00;9.75;;;;;8.87;61.89;102490.03;4937839;28;45250;-76
2022/01/20 03:36:38;;;;;;;;;13.00;10.25;;;;;8.67;62.26;102454.16;4945844;28;45035;-74
2022/01/20 03:39:05;;;;;;;;;12.75;7.00;;;;;8.78;62.25;102498.38;4934377;28;45013;-73
2022/01/20 03:41:30;;;;;;;;;11.00;8.00;;;;;8.72;62.08;102510.41;4936200;28;45166;-74
2022/01/20 03:43:55;;;;;;;;;11.00;9.00;;;;;8.66;62.33;102503.88;4935727;28;45215;-75
2022/01/20 03:46:22;;;;;;;;;11.75;9.00;;;;;8.37;61.85;102455.81;4944949;28;45102;-74
2022/01/20 03:48:56;;;;;;;;;9.00;7.25;;;;;8.60;62.85;102490.16;4946301;28;45391;-75
2022/01/20 03:51:24;;;;;;;;;10.00;7.50;;;;;8.53;61.62;102498.59;4949559;28;44980;-75
2022/01/20 03:53:52;;;;;;;;;9.75;8.00;;;;;8.40;62.12;102506.63;4939809;28;45207;-74
2022/01/20 03:56:19;;;;;;;;;12.25;9.75;;;;;8.46;62.01;102502.63;4948516;28;45151;-75
2022/01/20 03:58:45;;;;;;;;;8.50;8.50;;;;;8.45;63.17;102507.84;4947246;28;45391;-75
2022/01/20 04:01:12;;;;;;;;;7.50;6.75;;;;;8.46;61.73;102509.69;4933013;28;45210;-76
2022/01/20 04:03:37;;;;;;;;;10.00;5.50;;;;;8.48;62.90;102522.28;4949314;28;45228;-76
2022/01/20 04:06:02;;;;;;;;;9.50;8.50;;;;;8.48;62.47;102521.38;4953254;28;44864;-75
2022/01/20 04:08:40;;;;;;;;;10.75;9.75;;;;;8.51;62.05;102528.63;4954425;28;45713;-74
2022/01/20 04:11:12;;;;;;;;;8.25;6.75;;;;;8.23;62.38;102479.84;4947432;28;45250;-76
2022/01/20 04:13:38;;;;;;;;;18.75;13.75;;;;;8.54;62.86;102531.47;4952209;28;45051;-75
2022/01/20 04:16:13;;;;;;;;;9.75;8.00;;;;;8.20;62.69;102482.28;4941021;28;45023;-76
2022/01/20 04:18:40;;;;;;;;;9.00;8.00;;;;;8.03;62.43;102474.94;4953792;28;45688;-75
2022/01/20 04:21:06;;;;;;;;;10.00;8.75;;;;;8.57;62.18;102540.59;4946206;28;45016;-76
2022/01/20 04:23:31;;;;;;;;;11.25;9.75;;;;;8.58;62.26;102537.09;4942383;28;45065;-77
2022/01/20 04:25:57;;;;;;;;;8.75;8.00;;;;;8.46;62.73;102531.94;4942093;28;45061;-76
2022/01/20 04:28:22;;;;;;;;;10.75;6.50;;;;;8.58;62.06;102538.84;4951474;28;45587;-75
2022/01/20 04:30:48;;;;;;;;;6.00;4.50;;;;;8.57;61.95;102537.00;4940564;28;45269;-75
2022/01/20 04:33:13;;;;;;;;;6.25;6.25;;;;;8.01;62.25;102437.59;4935351;28;45118;-75
2022/01/20 04:35:39;;;;;;;;;11.00;9.00;;;;;8.56;62.44;102536.06;4949349;28;45174;-76
2022/01/20 04:38:05;;;;;;;;;11.75;10.00;;;;;8.35;61.39;102495.66;4953656;28;45999;-78
2022/01/20 04:40:37;;;;;;;;;5.75;5.75;;;;;8.44;62.21;102514.91;4942388;28;45254;-73
2022/01/20 04:43:03;;;;;;;;;11.00;5.75;;;;;8.54;61.52;102532.41;4941003;28;45300;-73
2022/01/20 04:45:33;;;;;;;;;13.75;11.00;;;;;7.78;61.56;102403.28;4940854;28;44898;-75
2022/01/20 04:58:59;;;;;;;;;11.50;10.00;;;;;8.29;61.50;102530.78;4939684;28;45123;-76
2022/01/20 05:01:24;;;;;;;;;10.00;7.00;;;;;8.45;61.04;102553.13;4943166;28;45181;-75
2022/01/20 05:03:50;;;;;;;;;7.25;5.25;;;;;8.19;61.16;102507.06;4945960;28;45669;-76
2022/01/20 05:06:15;;;;;;;;;8.00;6.25;;;;;8.46;61.13;102542.59;4933234;28;45190;-74
2022/01/20 05:08:41;;;;;;;;;6.25;6.25;;;;;8.40;61.53;102536.81;4934841;28;45174;-74
2022/01/20 05:11:06;;;;;;;;;6.50;4.50;;;;;8.06;61.13;102465.41;4937208;28;45058;-73
2022/01/20 05:13:34;;;;;;;;;7.25;7.25;;;;;8.33;61.30;102525.66;4946975;28;45403;-76
2022/01/20 05:16:01;;;;;;;;;3.50;2.25;;;;;8.38;61.52;102537.53;4945663;28;45018;-74
2022/01/20 05:18:26;;;;;;;;;5.25;5.00;;;;;8.20;61.30;102503.59;4946660;28;45606;-76
2022/01/20 05:20:51;;;;;;;;;10.00;5.75;;;;;8.14;61.44;102488.97;4942174;28;45283;-76
2022/01/20 05:23:18;;;;;;;;;7.00;5.25;;;;;7.96;61.72;102459.44;4935252;28;45345;-75
2022/01/20 05:25:43;;;;;;;;;10.00;9.75;;;;;8.14;61.43;102494.28;4938666;28;45128;-75
2022/01/20 05:28:08;;;;;;;;;10.25;7.75;;;;;8.34;60.90;102544.41;4946091;28;45466;-75
2022/01/20 05:30:34;;;;;;;;;6.00;4.50;;;;;7.85;60.85;102453.38;4934145;28;44941;-75
2022/01/20 05:33:00;;;;;;;;;9.75;8.00;;;;;8.32;60.87;102540.72;4940511;28;45036;-76
2022/01/20 05:35:27;;;;;;;;;12.25;7.50;;;;;8.35;61.60;102551.59;4942028;28;45005;-76
2022/01/20 05:37:52;;;;;;;;;6.50;6.50;;;;;8.38;61.80;102562.44;4936633;28;45344;-76
2022/01/20 05:40:18;;;;;;;;;15.50;10.50;;;;;8.39;60.62;102564.25;4936230;28;45104;-75
2022/01/20 05:42:43;;;;;;;;;11.75;9.25;;;;;8.42;61.09;102566.22;4933486;28;44988;-75
2022/01/20 05:45:09;;;;;;;;;11.75;8.75;;;;;8.44;61.35;102567.25;4937829;28;44942;-76
2022/01/20 05:47:42;;;;;;;;;11.25;9.00;;;;;8.26;60.66;102540.34;4941179;28;45388;-76
2022/01/20 05:50:07;;;;;;;;;7.50;7.25;;;;;8.44;60.12;102577.91;4949197;28;45051;-76
2022/01/20 05:52:36;;;;;;;;;10.75;8.25;;;;;8.35;59.91;102564.91;4938722;28;45089;-77
2022/01/20 05:55:01;;;;;;;;;8.75;4.75;;;;;8.34;59.59;102567.47;4921412;28;44952;-76
2022/01/20 05:57:26;;;;;;;;;10.50;6.75;;;;;8.38;60.04;102582.81;4941592;28;45968;-74
2022/01/20 05:59:52;;;;;;;;;4.00;3.25;;;;;7.76;60.39;102475.00;4932795;28;45210;-75
2022/01/20 06:02:35;;;;;;;;;5.50;4.00;;;;;8.20;60.52;102564.84;4939460;28;45221;-73
2022/01/20 06:05:01;;;;;;;;;8.75;5.00;;;;;8.02;60.82;102534.31;4936358;28;45646;-74
2022/01/20 06:07:27;;;;;;;;;6.75;6.00;;;;;8.21;60.63;102585.28;4932562;28;45256;-73
2022/01/20 06:09:52;;;;;;;;;10.00;7.75;;;;;8.06;59.74;102555.00;4934296;28;45376;-73
2022/01/20 06:12:17;;;;;;;;;8.00;5.50;;;;;8.28;60.57;102591.94;4943804;28;44987;-74
2022/01/20 06:14:42;;;;;;;;;8.50;8.50;;;;;8.28;60.63;102586.63;4952063;28;45052;-75
2022/01/20 06:17:08;;;;;;;;;7.00;4.00;;;;;8.27;60.27;102591.03;4932219;28;45435;-77
2022/01/20 06:19:33;;;;;;;;;5.75;4.25;;;;;8.16;60.10;102578.75;4934492;28;46374;-75
2022/01/20 06:21:59;;;;;;;;;10.50;6.25;;;;;8.25;60.71;102594.41;4942018;28;45184;-76
2022/01/20 06:24:24;;;;;;;;;8.00;7.50;;;;;8.26;59.88;102598.91;4932510;28;45196;-75
2022/01/20 06:26:49;;;;;;;;;9.75;5.25;;;;;8.26;59.82;102601.56;4935501;28;45870;-75
2022/01/20 06:29:15;;;;;;;;;5.25;5.25;;;;;8.25;59.72;102599.72;4936818;28;44832;-76
2022/01/20 06:31:40;;;;;;;;;21.00;16.00;;;;;8.16;59.97;102594.72;4942184;28;45211;-76
2022/01/20 06:34:05;;;;;;;;;11.00;5.75;;;;;8.20;59.55;102603.81;4941098;28;45162;-74
2022/01/20 06:36:31;;;;;;;;;10.25;8.75;;;;;7.74;59.70;102530.78;4944522;28;45111;-77
2022/01/20 06:38:56;;;;;;;;;11.50;8.50;;;;;8.05;60.19;102601.06;4936330;28;45051;-74
2022/01/20 06:41:21;;;;;;;;;4.00;4.00;;;;;8.12;60.19;102606.00;4936842;28;45115;-76
2022/01/20 06:43:47;;;;;;;;;7.00;7.00;;;;;7.84;60.38;102550.94;4936856;28;44999;-75
2022/01/20 06:46:12;;;;;;;;;8.25;4.50;;;;;7.98;59.10;102578.44;4946258;28;44982;-75
2022/01/20 06:48:37;;;;;;;;;10.25;8.75;;;;;8.02;59.75;102611.50;4935906;28;45406;-75
2022/01/20 06:51:03;;;;;;;;;7.00;7.00;;;;;8.11;60.27;102609.47;4934350;28;45079;-75
2022/01/20 06:53:28;;;;;;;;;20.00;15.75;;;;;8.13;60.32;102621.13;4936820;28;45284;-73
2022/01/20 06:55:53;;;;;;;;;9.50;7.50;;;;;8.13;59.16;102618.47;4947924;28;45559;-75
2022/01/20 06:58:21;;;;;;;;;8.75;7.00;;;;;7.42;59.46;102528.59;4944567;28;45709;-74
2022/01/20 07:00:46;;;;;;;;;13.50;8.25;;;;;8.01;59.75;102646.97;4942118;28;45183;-73
2022/01/20 07:03:12;;;;;;;;;6.25;6.25;;;;;7.71;59.37;102607.72;4949464;28;45391;-76
2022/01/20 07:05:38;;;;;;;;;13.75;11.00;;;;;7.93;59.12;102636.69;4944836;28;45394;-74
2022/01/20 07:08:03;;;;;;;;;9.25;8.25;;;;;8.05;60.09;102649.94;4942177;28;45211;-74
2022/01/20 07:10:29;;;;;;;;;7.75;5.00;;;;;7.98;59.38;102654.72;4939359;28;45241;-74
2022/01/20 07:12:55;;;;;;;;;6.25;5.75;;;;;8.02;59.47;102667.41;4935469;28;45372;-74
2022/01/20 07:15:20;;;;;;;;;10.00;9.00;;;;;8.04;60.16;102677.34;4947900;28;45565;-74
2022/01/20 07:17:46;;;;;;;;;7.50;7.25;;;;;8.02;59.78;102676.34;4941899;28;45307;-75
2022/01/20 07:20:13;;;;;;;;;13.00;8.25;;;;;7.96;59.23;102685.66;4938093;28;45255;-74
2022/01/20 07:22:38;;;;;;;;;15.75;9.50;;;;;7.85;60.23;102679.56;4945695;28;45447;-74
2022/01/20 07:25:04;;;;;;;;;18.50;13.25;;;;;7.95;59.81;102692.69;4944675;28;45297;-75
2022/01/20 07:27:30;;;;;;;;;7.00;5.00;;;;;7.81;59.87;102665.16;4926910;28;45530;-75
2022/01/20 07:29:55;;;;;;;;;10.00;5.00;;;;;7.68;60.03;102651.81;4926766;28;45961;-74
2022/01/20 07:32:21;;;;;;;;;32.00;14.00;;;;;7.83;59.74;102687.47;4905662;28;45315;-76
2022/01/20 07:34:46;;;;;;;;;11.50;9.25;;;;;7.93;60.35;102697.91;4919195;28;46316;-75
2022/01/20 07:37:12;;;;;;;;;8.00;7.00;;;;;7.98;60.50;102695.56;4920609;28;45506;-75
2022/01/20 07:39:37;;;;;;;;;11.50;9.00;;;;;7.75;60.96;102651.41;4929006;28;45283;-75
2022/01/20 07:42:03;;;;;;;;;13.25;9.75;;;;;8.10;60.12;102699.09;4922849;28;45838;-76
2022/01/20 07:44:29;;;;;;;;;24.50;19.50;;;;;7.85;59.76;102653.91;4920954;28;46636;-73
2022/01/20 07:46:54;;;;;;;;;6.25;5.25;;;;;8.03;60.67;102675.50;4919063;28;45682;-76
2022/01/20 07:49:20;;;;;;;;;6.50;5.00;;;;;8.14;60.26;102699.28;4918621;28;45396;-75
2022/01/20 07:51:45;;;;;;;;;11.75;8.50;;;;;8.14;60.27;102704.63;4946902;28;45314;-77
2022/01/20 07:54:11;;;;;;;;;15.75;10.50;;;;;8.11;60.67;102686.69;4946265;28;46920;-75
2022/01/20 07:56:36;;;;;;;;;8.00;5.00;;;;;8.20;60.10;102702.34;4923067;28;45379;-74
2022/01/20 07:59:03;;;;;;;;;18.50;9.00;;;;;8.17;60.16;102699.50;4936764;28;45897;-73
2022/01/20 08:01:28;;;;;;;;;10.25;8.25;;;;;8.17;60.04;102695.09;4936548;28;45557;-74
2022/01/20 08:03:54;;;;;;;;;7.00;7.00;;;;;8.24;60.30;102681.34;4936156;28;46288;-73
2022/01/20 08:06:22;;;;;;;;;10.50;9.00;;;;;8.29;60.39;102689.66;4939127;28;45558;-73
2022/01/20 08:08:50;;;;;;;;;11.75;5.00;;;;;7.98;60.21;102633.44;4950781;28;45231;-73
2022/01/20 08:11:15;;;;;;;;;9.25;6.00;;;;;8.00;59.66;102645.09;4926273;28;45687;-74
2022/01/20 08:13:41;;;;;;;;;10.00;8.00;;;;;7.93;59.46;102634.03;4925857;28;45517;-76
2022/01/20 08:16:06;;;;;;;;;11.00;8.00;;;;;8.24;59.62;102675.13;4921681;28;45454;-75
2022/01/20 08:18:31;;;;;;;;;5.00;5.00;;;;;8.42;60.26;102710.97;4925917;28;45428;-75
2022/01/20 08:20:57;;;;;;;;;5.00;4.25;;;;;8.33;60.08;102685.47;4923568;28;45461;-74
2022/01/20 08:23:22;;;;;;;;;15.50;13.00;;;;;8.24;59.14;102653.81;4923129;28;45458;-77
2022/01/20 08:25:48;;;;;;;;;9.25;8.00;;;;;8.30;59.04;102662.22;4924439;28;45446;-74
2022/01/20 08:28:14;;;;;;;;;8.50;5.00;;;;;8.39;59.14;102669.88;4919320;28;45614;-73
2022/01/20 08:30:41;;;;;;;;;6.25;4.50;;;;;8.39;60.23;102640.59;4922454;28;45506;-75
2022/01/20 08:33:06;;;;;;;;;7.00;6.75;;;;;8.69;59.25;102691.41;4901325;28;47516;-74
2022/01/20 08:35:32;;;;;;;;;16.00;9.50;;;;;8.47;58.76;102652.72;4924506;28;45731;-74
2022/01/20 08:37:59;;;;;;;;;28.50;27.00;;;;;8.69;58.86;102692.31;4930470;28;45525;-74
2022/01/20 08:40:26;;;;;;;;;12.50;8.50;;;;;8.75;58.99;102714.03;4920266;28;45883;-73
2022/01/20 08:42:55;;;;;;;;;4.00;4.00;;;;;8.12;58.53;102614.91;4923254;28;45915;-74
2022/01/20 08:45:24;;;;;;;;;11.00;8.50;;;;;8.38;59.17;102670.69;4926613;28;45420;-76
2022/01/20 08:47:54;;;;;;;;;8.50;7.75;;;;;8.65;59.29;102709.84;4921261;28;45466;-75
2022/01/20 08:50:19;;;;;;;;;19.75;12.75;;;;;8.32;58.64;102657.00;4919046;28;45710;-73
2022/01/20 08:52:45;;;;;;;;;18.25;14.75;;;;;8.34;59.02;102655.34;4920920;28;45744;-74
2022/01/20 08:55:11;;;;;;;;;16.25;14.00;;;;;8.78;58.40;102726.66;4903588;28;45831;-74
2022/01/20 08:57:37;;;;;;;;;12.75;6.00;;;;;8.48;59.01;102671.47;4900380;28;45670;-75
2022/01/20 09:00:05;;;;;;;;;12.00;10.25;;;;;8.76;58.89;102710.56;4921392;28;45482;-73
2022/01/20 09:02:30;;;;;;;;;19.25;14.50;;;;;8.76;59.29;102707.91;4918381;28;46172;-74
2022/01/20 09:04:56;;;;;;;;;18.50;14.25;;;;;8.82;59.29;102716.28;4927609;28;45379;-75
2022/01/20 09:07:21;;;;;;;;;31.75;23.00;;;;;8.86;59.31;102714.75;4929345;28;45540;-75
2022/01/20 09:09:48;;;;;;;;;27.25;22.25;;;;;8.94;59.17;102721.50;4923905;28;45479;-74
2022/01/20 09:17:52;;;;;;;;;11.00;8.00;;;;;8.43;59.38;102651.59;4920975;28;45458;-76
2022/01/20 09:20:18;;;;;;;;;15.25;11.25;;;;;8.80;59.61;102698.38;4918755;28;45506;-77
2022/01/20 09:22:43;;;;;;;;;57.00;44.25;;;;;8.60;59.24;102663.34;4927757;28;45661;-75
2022/01/20 09:25:09;;;;;;;;;19.00;14.25;;;;;9.09;59.52;102734.91;4916840;28;45603;-75
2022/01/20 09:27:34;;;;;;;;;17.75;13.50;;;;;9.16;58.50;102741.56;4922173;28;45446;-74
2022/01/20 09:30:02;;;;;;;;;16.00;11.25;;;;;9.20;58.58;102748.91;4917082;28;45385;-75
2022/01/20 09:32:29;;;;;;;;;14.50;11.00;;;;;8.74;59.22;102663.31;4903140;28;47566;-74
2022/01/20 09:34:56;;;;;;;;;9.00;8.00;;;;;8.61;58.49;102629.63;4926726;28;45579;-75
2022/01/20 09:37:22;;;;;;;;;9.25;9.25;;;;;8.80;58.23;102677.03;4924727;28;45628;-74
2022/01/20 09:39:47;;;;;;;;;10.75;10.50;;;;;9.09;58.09;102741.97;4928615;28;46641;-73
2022/01/20 09:42:13;;;;;;;;;12.75;10.00;;;;;8.87;57.75;102702.34;4928205;28;45460;-75
2022/01/20 09:44:44;;;;;;;;;10.00;10.00;;;;;8.76;58.73;102689.25;4919773;28;45387;-74
2022/01/20 09:47:10;;;;;;;;;10.25;7.25;;;;;9.03;58.90;102740.75;4918329;28;45351;-73
2022/01/20 09:49:37;;;;;;;;;14.00;10.00;;;;;9.28;58.78;102760.09;4928762;28;45522;-75
2022/01/20 09:52:02;;;;;;;;;12.25;9.75;;;;;9.20;58.79;102730.25;4925462;28;46171;-75
2022/01/20 09:54:28;;;;;;;;;3.25;3.00;;;;;9.31;59.09;102739.88;4923325;28;45477;-75
2022/01/20 09:56:55;;;;;;;;;16.25;13.00;;;;;8.71;58.29;102624.09;4924497;28;45369;-74
2022/01/20 09:59:20;;;;;;;;;13.25;12.00;;;;;9.52;59.02;102755.38;4926392;28;46186;-73
2022/01/20 10:01:49;;;;;;;;;11.25;9.25;;;;;9.38;58.36;102736.75;4936798;28;45643;-75
2022/01/20 10:04:21;;;;;;;;;35.25;30.00;;;;;9.62;58.41;102754.19;4931446;28;45704;-75
2022/01/20 10:07:11;;;;;;;;;25.75;18.75;;;;;9.67;57.74;102752.72;4911719;28;45650;-74
2022/01/20 10:09:41;;;;;;;;;16.75;14.25;;;;;9.76;58.15;102759.56;4924437;28;45491;-74
2022/01/20 10:12:09;;;;;;;;;33.50;26.25;;;;;9.75;57.43;102752.41;4931133;28;45876;-75
2022/01/20 10:14:45;;;;;;;;;18.75;12.75;;;;;9.86;57.56;102771.75;4914624;28;45511;-74
2022/01/20 10:17:15;;;;;;;;;17.75;12.25;;;;;9.65;57.88;102719.69;4928523;28;45470;-74
2022/01/20 10:19:41;;;;;;;;;13.00;10.00;;;;;9.49;57.11;102696.50;4934378;28;45562;-73
2022/01/20 10:22:14;;;;;;;;;17.75;12.25;;;;;9.66;57.92;102737.56;4931887;28;46478;-74
2022/01/20 10:24:41;;;;;;;;;22.00;17.50;;;;;9.99;57.19;102797.47;4923158;28;45393;-74
2022/01/20 10:27:13;;;;;;;;;21.50;12.75;;;;;9.75;57.21;102763.09;4927102;28;45305;-75
2022/01/20 10:29:39;;;;;;;;;14.50;10.75;;;;;10.01;57.66;102801.13;4927390;28;45572;-74
2022/01/20 10:32:05;;;;;;;;;17.75;11.00;;;;;10.01;56.94;102801.13;4906906;28;48161;-75
2022/01/20 10:34:35;;;;;;;;;16.75;13.00;;;;;10.09;57.21;102804.28;4928234;28;45560;-75
2022/01/20 10:37:16;;;;;;;;;23.75;16.75;;;;;10.14;56.74;102806.41;4921337;28;45510;-75
2022/01/20 10:39:45;;;;;;;;;11.00;10.75;;;;;9.75;57.09;102735.44;4933367;28;45379;-74
2022/01/20 10:42:15;;;;;;;;;15.25;10.25;;;;;10.07;57.01;102782.81;4929855;28;46045;-76
2022/01/20 10:44:43;;;;;;;;;20.00;14.75;;;;;9.81;56.69;102754.53;4937113;28;45292;-74
2022/01/20 10:47:24;;;;;;;;;11.00;10.00;;;;;10.16;56.51;102811.84;4928059;28;45563;-76
2022/01/20 10:49:51;;;;;;;;;19.75;17.50;;;;;10.24;56.92;102810.56;4929382;28;45434;-73
2022/01/20 10:52:32;;;;;;;;;13.00;12.25;;;;;10.30;56.16;102813.59;4929577;28;45268;-75
2022/01/20 10:54:59;;;;;;;;;17.00;12.25;;;;;10.35;56.35;102821.03;4929657;28;45576;-74
2022/01/20 10:57:30;;;;;;;;;33.00;29.25;;;;;9.89;56.12;102715.88;4930368;28;45843;-74
2022/01/20 10:59:59;;;;;;;;;24.00;17.00;;;;;10.45;56.37;102808.31;4911836;28;45398;-75
2022/01/20 11:02:29;;;;;;;;;20.00;14.25;;;;;10.25;55.75;102752.72;4933269;28;47602;-75
2022/01/20 11:04:55;;;;;;;;;16.50;14.25;;;;;10.23;56.02;102755.31;4911049;28;45431;-74
2022/01/20 11:07:21;;;;;;;;;13.75;12.00;;;;;10.45;55.86;102805.63;4919315;28;45616;-74
2022/01/20 11:09:52;;;;;;;;;19.00;18.00;;;;;10.47;55.96;102806.63;4907801;28;45460;-77
2022/01/20 11:12:18;;;;;;;;;18.75;14.25;;;;;10.56;56.09;102803.63;4913129;28;46475;-75
2022/01/20 11:14:46;;;;;;;;;16.50;15.00;;;;;10.54;56.11;102790.97;4918987;28;45510;-75
2022/01/20 11:17:18;;;;;;;;;15.50;14.25;;;;;10.66;55.55;102815.78;4924992;28;45506;-75
2022/01/20 11:19:45;;;;;;;;;12.25;9.00;;;;;10.41;55.43;102759.91;4934318;28;45434;-77
2022/01/20 11:22:13;;;;;;;;;10.50;6.25;;;;;10.65;54.42;102798.78;4936708;28;45344;-77
2022/01/20 11:24:40;;;;;;;;;11.75;8.00;;;;;10.66;55.26;102800.66;4936531;28;45542;-77
2022/01/20 11:27:07;;;;;;;;;7.75;5.50;;;;;10.33;54.25;102733.69;4936476;28;45592;-79
2022/01/20 11:29:46;;;;;;;;;12.25;7.00;;;;;10.66;54.15;102789.97;4936704;28;45596;-76
2022/01/20 11:32:21;;;;;;;;;8.75;6.00;;;;;10.45;54.03;102745.94;4923207;28;46255;-75
2022/01/20 11:35:00;;;;;;;;;43.50;33.75;;;;;10.78;54.30;102786.16;4927081;28;45496;-74
2022/01/20 11:37:29;;;;;;;;;8.25;7.00;;;;;10.88;53.71;102785.84;4923838;28;45333;-76
2022/01/20 11:40:06;;;;;;;;;11.50;7.75;;;;;10.77;54.02;102774.53;4927426;28;45679;-77
2022/01/20 11:42:32;;;;;;;;;11.50;10.75;;;;;11.03;54.34;102797.44;4928300;28;45437;-77
2022/01/20 11:44:59;;;;;;;;;8.75;7.25;;;;;10.84;53.49;102750.00;4927914;28;45435;-77
2022/01/20 11:47:32;;;;;;;;;14.25;10.75;;;;;11.13;53.60;102793.53;4923508;28;45596;-78
2022/01/20 11:49:58;;;;;;;;;19.00;16.25;;;;;11.16;53.51;102798.16;4925290;28;45457;-78
2022/01/20 11:52:26;;;;;;;;;10.50;7.25;;;;;10.83;52.27;102733.88;4925899;28;45454;-77
2022/01/20 11:54:51;;;;;;;;;20.00;16.00;;;;;11.18;52.31;102800.06;4921378;28;45413;-77
2022/01/20 11:57:28;;;;;;;;;12.25;8.75;;;;;11.16;52.45;102796.38;4920645;28;45297;-76
2022/01/20 11:59:57;;;;;;;;;8.00;8.00;;;;;10.99;52.23;102757.06;4927461;28;45344;-77
2022/01/20 12:02:29;;;;;;;;;8.00;8.00;;;;;10.46;52.72;102676.53;4927256;28;45799;-78
2022/01/20 12:04:55;;;;;;;;;33.75;29.50;;;;;10.76;52.21;102726.34;4917424;28;45457;-78
2022/01/20 12:07:29;;;;;;;;;9.75;5.75;;;;;10.90;52.03;102761.88;4929596;28;45478;-77
2022/01/20 12:10:07;;;;;;;;;7.50;5.00;;;;;11.11;51.91;102796.97;4924209;28;45449;-75
2022/01/20 12:12:33;;;;;;;;;6.25;6.25;;;;;10.83;51.86;102755.25;4920026;28;45588;-76
2022/01/20 12:15:12;;;;;;;;;9.25;6.75;;;;;10.77;51.94;102710.34;4920334;28;45538;-77
2022/01/20 12:17:41;;;;;;;;;10.25;7.75;;;;;11.05;51.77;102738.66;4925206;28;45438;-76
2022/01/20 12:20:10;;;;;;;;;6.00;6.00;;;;;11.48;50.65;102804.38;4922494;28;45399;-77
2022/01/20 12:22:40;;;;;;;;;28.25;17.75;;;;;11.55;50.88;102798.53;4931783;28;46165;-76
2022/01/20 12:25:05;;;;;;;;;5.00;4.75;;;;;11.03;50.04;102713.59;4927287;28;45493;-77
2022/01/20 12:27:31;;;;;;;;;7.00;3.50;;;;;10.86;49.93;102685.91;4911915;28;45494;-78
2022/01/20 12:29:57;;;;;;;;;6.25;5.00;;;;;11.41;50.22;102796.00;4921196;28;45369;-78
2022/01/20 12:32:24;;;;;;;;;6.25;4.25;;;;;11.14;50.29;102751.66;4918182;28;46032;-77